Time;durP1;ratioP1;P1;durP2;ratioP2;P2;SDS_P1;SDS_P2;PMS_P1;PMS_P2;Temp;Humidity;BMP_temperature;BMP_pressure;BME280_temperature;BME280_humidity;BME280_pressure;Samples;Min_cycle;Max_cycle;Signal;HPM_P1;HPM_P2
2022/01/01 00:02:13;;;;;;;7.57;5.50;;;;;;;10.22;100.00;96225.75;5098765;28;20184;-61
2022/01/01 00:04:39;;;;;;;6.97;5.00;;;;;;;10.29;100.00;96225.78;5099020;28;20185;-61
2022/01/01 00:07:05;;;;;;;6.10;4.60;;;;;;;10.27;100.00;96225.41;5098868;28;20179;-61
2022/01/01 00:09:30;;;;;;;5.87;5.20;;;;;;;10.23;100.00;96219.91;5098847;28;20313;-61
2022/01/01 00:11:55;;;;;;;7.33;5.50;;;;;;;10.25;100.00;96227.72;5098606;28;20194;-61
2022/01/01 00:14:20;;;;;;;5.67;4.47;;;;;;;10.20;100.00;96220.66;5098507;28;20172;-61
2022/01/01 00:16:46;;;;;;;4.67;3.87;;;;;;;10.18;100.00;96222.22;5098605;28;20179;-65
2022/01/01 00:19:11;;;;;;;4.97;4.10;;;;;;;10.13;100.00;96221.41;5098480;28;20188;-73
2022/01/01 00:21:36;;;;;;;5.50;4.00;;;;;;;10.16;100.00;96213.63;5098326;28;20294;-61
2022/01/01 00:24:02;;;;;;;4.47;3.90;;;;;;;10.12;100.00;96215.56;5098436;28;20194;-61
2022/01/01 00:26:27;;;;;;;4.87;3.30;;;;;;;10.08;100.00;96212.78;5098269;28;20188;-60
2022/01/01 00:28:53;;;;;;;4.63;3.67;;;;;;;10.05;100.00;96210.78;5098347;28;20192;-61
2022/01/01 00:31:18;;;;;;;4.30;3.20;;;;;;;10.05;100.00;96213.50;5098302;28;20253;-61
2022/01/01 00:33:43;;;;;;;5.17;3.80;;;;;;;9.99;100.00;96212.31;5098098;28;20211;-61
2022/01/01 00:36:09;;;;;;;4.07;3.30;;;;;;;9.97;100.00;96220.88;5098359;28;20197;-60
2022/01/01 00:38:34;;;;;;;5.43;3.20;;;;;;;9.91;100.00;96230.56;5098302;28;20194;-74
2022/01/01 00:41:00;;;;;;;3.90;3.30;;;;;;;9.87;100.00;96226.22;5098130;28;20242;-73
2022/01/01 00:43:25;;;;;;;4.40;3.60;;;;;;;9.82;100.00;96224.66;5098071;28;20208;-74
2022/01/01 00:45:50;;;;;;;6.27;3.43;;;;;;;9.76;100.00;96234.34;5098262;28;20225;-74
2022/01/01 00:48:16;;;;;;;5.77;3.57;;;;;;;9.70;100.00;96235.06;5098134;28;20192;-73
2022/01/01 00:50:41;;;;;;;4.33;3.63;;;;;;;9.63;100.00;96241.25;5098596;28;20282;-74
2022/01/01 00:53:07;;;;;;;4.63;3.60;;;;;;;9.57;100.00;96242.75;5098191;28;20286;-74
2022/01/01 00:55:33;;;;;;;4.67;3.53;;;;;;;9.51;100.00;96243.47;5098186;28;20192;-63
2022/01/01 00:57:59;;;;;;;5.23;3.70;;;;;;;9.44;100.00;96255.06;5097909;28;20182;-67
2022/01/01 01:00:24;;;;;;;5.07;3.80;;;;;;;9.38;100.00;96256.59;5097829;28;20207;-67
2022/01/01 01:02:49;;;;;;;5.33;4.13;;;;;;;9.35;100.00;96251.88;5097896;28;20184;-67
2022/01/01 01:05:15;;;;;;;5.73;4.00;;;;;;;9.31;100.00;96251.06;5097817;28;20179;-67
2022/01/01 01:07:40;;;;;;;4.27;3.87;;;;;;;9.30;100.00;96249.50;5098021;28;20274;-67
2022/01/01 01:10:06;;;;;;;7.23;4.47;;;;;;;9.27;100.00;96250.25;5097780;28;20196;-67
2022/01/01 01:12:49;;;;;;;5.20;4.23;;;;;;;9.24;100.00;96250.97;5097690;28;20196;-60
2022/01/01 01:15:18;;;;;;;5.60;4.57;;;;;;;9.21;100.00;96261.81;5097930;28;20198;-61
2022/01/01 01:17:49;;;;;;;6.70;4.30;;;;;;;9.18;100.00;96259.88;5097326;28;20285;-61
2022/01/01 01:20:15;;;;;;;4.90;3.90;;;;;;;9.14;100.00;96261.78;5097929;28;20227;-61
2022/01/01 01:22:41;;;;;;;6.33;4.70;;;;;;;9.10;100.00;96267.16;5097805;28;20187;-60
2022/01/01 01:25:07;;;;;;;6.93;5.27;;;;;;;9.11;100.00;96268.72;5097898;28;20187;-60
2022/01/01 01:27:35;;;;;;;6.53;5.30;;;;;;;9.13;100.00;96271.88;5097281;28;20683;-61
2022/01/01 01:30:00;;;;;;;6.00;4.97;;;;;;;9.13;100.00;96271.88;5115441;28;20183;-61
2022/01/01 01:32:25;;;;;;;6.43;4.47;;;;;;;9.11;100.00;96274.19;5097374;28;20210;-63
2022/01/01 01:34:51;;;;;;;4.83;3.90;;;;;;;9.05;100.00;96274.88;5097360;28;20195;-60
2022/01/01 01:37:16;;;;;;;4.40;3.67;;;;;;;8.98;100.00;96282.97;5097319;28;20193;-60
2022/01/01 01:39:42;;;;;;;4.80;3.40;;;;;;;8.96;100.00;96286.06;5096888;28;20195;-60
2022/01/01 01:42:07;;;;;;;3.97;3.13;;;;;;;8.92;100.00;96287.97;5097421;28;20209;-60
2022/01/01 01:44:41;;;;;;;3.50;3.00;;;;;;;8.90;100.00;96284.84;5096899;28;20190;-60
2022/01/01 01:47:14;;;;;;;4.23;3.20;;;;;;;8.88;100.00;96294.50;5097732;28;20215;-60
2022/01/01 01:49:40;;;;;;;4.50;3.03;;;;;;;8.86;100.00;96294.13;5097891;28;20183;-66
2022/01/01 01:52:07;;;;;;;3.90;3.10;;;;;;;8.83;100.00;96290.19;5097244;28;20195;-62
2022/01/01 01:54:33;;;;;;;4.57;3.50;;;;;;;8.76;100.00;96284.66;5096960;28;20235;-63
2022/01/01 01:56:59;;;;;;;5.53;3.57;;;;;;;8.72;100.00;96278.38;5097416;28;20195;-63
2022/01/01 01:59:25;;;;;;;4.03;3.43;;;;;;;8.69;100.00;96289.22;5096848;28;20195;-64
2022/01/01 02:01:51;;;;;;;4.50;3.33;;;;;;;8.65;100.00;96283.72;5096943;28;20211;-63
2022/01/01 02:04:16;;;;;;;4.63;3.23;;;;;;;8.63;100.00;96286.03;5097196;28;20190;-63
2022/01/01 02:06:42;;;;;;;5.03;3.60;;;;;;;8.60;100.00;96278.59;5095985;28;20191;-63
2022/01/01 02:09:12;;;;;;;4.20;3.17;;;;;;;8.58;100.00;96280.91;5096982;28;20176;-64
2022/01/01 02:11:41;;;;;;;5.07;3.47;;;;;;;8.56;100.00;96277.00;5097667;28;20192;-61
2022/01/01 02:14:20;;;;;;;5.30;3.30;;;;;;;8.53;100.00;96275.75;5096885;28;20273;-61
2022/01/01 02:19:25;;;;;;;7.60;4.00;;;;;;;8.45;100.00;96284.22;5114736;28;20198;-61
2022/01/01 02:21:58;;;;;;;6.67;4.20;;;;;;;8.42;100.00;96284.94;5096512;28;20213;-61
2022/01/01 02:24:25;;;;;;;7.97;5.60;;;;;;;8.43;100.00;96281.88;5096859;28;20207;-61
2022/01/01 02:26:51;;;;;;;6.03;4.87;;;;;;;8.46;100.00;96281.13;5096708;28;20188;-59
2022/01/01 02:29:16;;;;;;;5.67;3.83;;;;;;;8.46;100.00;96281.13;5096063;28;20193;-67
2022/01/01 02:31:41;;;;;;;4.27;3.60;;;;;;;8.47;100.00;96277.25;5096554;28;20189;-67
2022/01/01 02:34:09;;;;;;;7.03;3.67;;;;;;;8.44;100.00;96272.53;5096462;28;20249;-66
2022/01/01 02:36:39;;;;;;;4.60;3.50;;;;;;;8.45;100.00;96274.09;5096157;28;20218;-67
2022/01/01 02:39:14;;;;;;;4.67;3.20;;;;;;;8.43;100.00;96276.41;5096898;28;20235;-67
2022/01/01 02:41:41;;;;;;;4.80;3.80;;;;;;;8.38;100.00;96279.44;5096736;28;20213;-67
2022/01/01 02:44:07;;;;;;;4.80;3.43;;;;;;;8.39;100.00;96275.59;5096558;28;20187;-59
2022/01/01 02:46:33;;;;;;;5.83;3.63;;;;;;;8.37;100.00;96272.44;5096393;28;20206;-72
2022/01/01 02:48:59;;;;;;;5.83;3.83;;;;;;;8.33;100.00;96271.59;5096790;28;20268;-60
2022/01/01 02:51:25;;;;;;;6.20;3.87;;;;;;;8.29;100.00;96262.59;5096573;28;20220;-60
2022/01/01 02:53:50;;;;;;;4.70;3.43;;;;;;;8.29;100.00;96259.88;5096189;28;20187;-60
2022/01/01 02:56:16;;;;;;;4.83;3.30;;;;;;;8.25;100.00;96261.78;5095757;28;20293;-60
2022/01/01 02:58:42;;;;;;;4.23;3.20;;;;;;;8.24;100.00;96257.50;5096180;28;20315;-60
2022/01/01 03:01:07;;;;;;;4.63;3.13;;;;;;;8.24;100.00;96273.03;5096577;28;20240;-60
2022/01/01 03:03:33;;;;;;;4.50;3.30;;;;;;;8.23;100.00;96272.22;5113094;28;20226;-67
2022/01/01 03:05:58;;;;;;;4.23;3.40;;;;;;;8.18;100.00;96274.44;5096209;28;20187;-63
2022/01/01 03:08:24;;;;;;;4.30;3.67;;;;;;;8.14;100.00;96273.59;5096084;28;20209;-63
2022/01/01 03:10:49;;;;;;;4.07;3.33;;;;;;;8.09;100.00;96274.69;5096474;28;20274;-63
2022/01/01 03:13:15;;;;;;;3.73;3.07;;;;;;;8.03;100.00;96284.31;5095842;28;20278;-63
2022/01/01 03:15:41;;;;;;;3.53;2.80;;;;;;;7.99;100.00;96278.06;5096022;28;20187;-63
2022/01/01 03:18:06;;;;;;;4.00;3.20;;;;;;;7.97;100.00;96285.00;5097665;28;20185;-62
2022/01/01 03:20:31;;;;;;;5.57;2.97;;;;;;;7.98;100.00;96292.00;5099570;28;20275;-61
2022/01/01 03:22:57;;;;;;;4.47;2.70;;;;;;;7.94;100.00;96280.28;5099361;28;20189;-61
2022/01/01 03:25:22;;;;;;;3.20;2.77;;;;;;;7.91;100.00;96281.00;5099472;28;20218;-73
2022/01/01 03:27:47;;;;;;;4.40;2.93;;;;;;;7.88;100.00;96287.19;5099472;28;20179;-74
2022/01/01 03:30:12;;;;;;;3.90;2.70;;;;;;;7.86;100.00;96295.69;5099151;28;20187;-73
2022/01/01 03:32:38;;;;;;;4.10;3.20;;;;;;;7.81;100.00;96298.72;5099271;28;20230;-73
2022/01/01 03:35:03;;;;;;;4.43;3.10;;;;;;;7.79;100.00;96305.69;5099020;28;20263;-73
2022/01/01 03:37:29;;;;;;;6.63;4.27;;;;;;;7.76;100.00;96307.16;5099108;28;20208;-73
2022/01/01 03:39:54;;;;;;;4.67;3.23;;;;;;;7.71;100.00;96304.75;5099197;28;20187;-62
2022/01/01 03:42:20;;;;;;;4.73;2.90;;;;;;;7.70;100.00;96311.34;5099047;28;20185;-64
2022/01/01 03:44:45;;;;;;;4.67;3.20;;;;;;;7.68;100.00;96319.06;5099083;28;20197;-61
2022/01/01 03:47:10;;;;;;;4.93;2.83;;;;;;;7.66;100.00;96318.66;5117163;28;20194;-61
2022/01/01 03:49:37;;;;;;;4.00;2.93;;;;;;;7.66;100.00;96324.09;5099066;28;20194;-61
2022/01/01 03:52:03;;;;;;;4.27;2.93;;;;;;;7.66;100.00;96324.09;5099006;28;20193;-61
2022/01/01 03:54:28;;;;;;;3.40;3.00;;;;;;;7.62;100.00;96323.25;5099002;28;20189;-61
2022/01/01 03:56:53;;;;;;;4.30;3.50;;;;;;;7.59;100.00;96326.69;5098910;28;20197;-61
2022/01/01 03:59:20;;;;;;;4.47;3.20;;;;;;;7.55;100.00;96325.03;5098915;28;20194;-64
2022/01/01 04:01:45;;;;;;;4.43;3.13;;;;;;;7.51;100.00;96326.91;5098567;28;20201;-60
2022/01/01 04:04:11;;;;;;;3.43;2.97;;;;;;;7.48;100.00;96335.78;5098807;28;20181;-60
2022/01/01 04:06:36;;;;;;;3.93;2.93;;;;;;;7.42;100.00;96335.28;5098673;28;20208;-60
2022/01/01 04:09:02;;;;;;;4.17;3.20;;;;;;;7.35;100.00;96328.94;5098753;28;20194;-60
2022/01/01 04:11:27;;;;;;;4.53;2.90;;;;;;;7.29;100.00;96325.72;5098635;28;20182;-60
2022/01/01 04:13:53;;;;;;;5.17;3.40;;;;;;;7.25;100.00;96330.28;5098619;28;20187;-61
2022/01/01 04:16:19;;;;;;;8.50;5.20;;;;;;;7.25;100.00;96313.97;5099181;28;20183;-60
2022/01/01 04:18:45;;;;;;;13.67;6.57;;;;;;;7.29;100.00;96314.88;5098526;28;20180;-67
2022/01/01 04:21:11;;;;;;;10.83;7.07;;;;;;;7.30;100.00;96316.44;5098803;28;20210;-60
2022/01/01 04:23:38;;;;;;;14.70;7.97;;;;;;;7.30;100.00;96321.88;5098531;28;20189;-60
2022/01/01 04:26:05;;;;;;;13.93;7.87;;;;;;;7.28;100.00;96317.94;5098260;28;20214;-60
2022/01/01 04:28:30;;;;;;;14.80;7.90;;;;;;;7.25;100.00;96316.69;5098741;28;20183;-61
2022/01/01 04:30:56;;;;;;;16.03;7.40;;;;;;;7.23;100.00;96305.44;5098492;28;20175;-60
2022/01/01 04:33:21;;;;;;;11.43;6.77;;;;;;;7.20;100.00;96306.13;5099000;28;20232;-62
2022/01/01 04:35:46;;;;;;;8.47;5.30;;;;;;;7.16;100.00;96318.88;5098881;28;20217;-61
2022/01/01 04:38:30;;;;;;;7.93;4.10;;;;;;;7.14;100.00;96302.13;5098220;28;20202;-67
2022/01/01 04:40:55;;;;;;;4.70;3.70;;;;;;;7.10;100.00;96306.72;5098506;28;20262;-67
2022/01/01 04:43:21;;;;;;;6.10;4.13;;;;;;;7.06;100.00;96314.00;5098582;28;20185;-69
2022/01/01 04:45:46;;;;;;;7.17;4.10;;;;;;;7.02;100.00;96325.97;5098110;28;20179;-67
2022/01/01 04:48:11;;;;;;;6.23;4.30;;;;;;;6.98;100.00;96323.16;5098210;28;20249;-67
2022/01/01 04:50:37;;;;;;;8.07;4.10;;;;;;;6.95;100.00;96321.16;5097771;28;20223;-67
2022/01/01 04:53:02;;;;;;;5.73;3.80;;;;;;;6.92;100.00;96321.84;5097979;28;20279;-62
2022/01/01 04:55:28;;;;;;;3.97;3.30;;;;;;;6.88;100.00;96320.22;5098249;28;20188;-61
2022/01/01 04:57:53;;;;;;;4.63;3.40;;;;;;;6.85;100.00;96324.44;5097964;28;20183;-61
2022/01/01 05:00:19;;;;;;;6.00;3.43;;;;;;;6.79;100.00;96323.16;5097817;28;20347;-61
2022/01/01 05:02:44;;;;;;;5.23;3.40;;;;;;;6.71;100.00;96326.84;5097191;28;20181;-61
2022/01/01 05:05:10;;;;;;;4.20;3.40;;;;;;;6.66;100.00;96329.81;5097691;28;20193;-61
2022/01/01 05:07:35;;;;;;;4.70;3.57;;;;;;;6.59;100.00;96319.63;5097702;28;20212;-61
2022/01/01 05:10:00;;;;;;;6.93;4.00;;;;;;;6.58;100.00;96322.69;5097707;28;20204;-61
2022/01/01 05:12:26;;;;;;;5.03;3.80;;;;;;;6.57;100.00;96331.97;5098110;28;20281;-63
2022/01/01 05:14:54;;;;;;;4.57;3.47;;;;;;;6.55;100.00;96328.81;5097659;28;20184;-59
2022/01/01 05:17:19;;;;;;;4.20;3.30;;;;;;;6.52;100.00;96329.53;5098017;28;20234;-59
2022/01/01 05:19:45;;;;;;;5.67;3.57;;;;;;;6.53;100.00;96333.81;5097540;28;20179;-59
2022/01/01 05:22:10;;;;;;;5.57;3.93;;;;;;;6.48;100.00;96339.50;5097514;28;20208;-59
2022/01/01 05:24:36;;;;;;;5.50;3.23;;;;;;;6.40;100.00;96332.34;5097811;28;20187;-59
2022/01/01 05:27:01;;;;;;;5.17;3.50;;;;;;;6.34;100.00;96339.19;5114490;28;20188;-59
2022/01/01 05:29:27;;;;;;;4.93;3.60;;;;;;;6.27;100.00;96333.59;5097360;28;20176;-59
2022/01/01 05:31:52;;;;;;;3.90;3.20;;;;;;;6.26;100.00;96340.16;5097461;28;20257;-75
2022/01/01 05:34:17;;;;;;;3.57;2.83;;;;;;;6.22;100.00;96331.94;5097313;28;20216;-74
2022/01/01 05:36:43;;;;;;;5.33;3.10;;;;;;;6.19;100.00;96331.84;5097467;28;20187;-74
2022/01/01 05:39:08;;;;;;;4.80;3.50;;;;;;;6.12;100.00;96331.69;5097184;28;20184;-73
2022/01/01 05:41:34;;;;;;;5.90;3.50;;;;;;;6.08;100.00;96325.38;5096132;28;20199;-74
2022/01/01 05:43:59;;;;;;;5.33;3.43;;;;;;;6.04;100.00;96332.66;5097128;28;20272;-74
2022/01/01 05:46:25;;;;;;;5.17;3.80;;;;;;;6.02;100.00;96337.66;5097532;28;20184;-74
2022/01/01 05:48:50;;;;;;;5.70;3.60;;;;;;;5.99;100.00;96331.00;5097553;28;20181;-65
2022/01/01 05:51:16;;;;;;;4.30;3.53;;;;;;;5.95;100.00;96329.34;5097072;28;20225;-59
2022/01/01 05:53:41;;;;;;;5.47;3.60;;;;;;;5.92;100.00;96322.69;5096990;28;20185;-59
2022/01/01 05:56:06;;;;;;;5.37;3.50;;;;;;;5.90;100.00;96324.19;5097066;28;20201;-59
2022/01/01 05:58:32;;;;;;;6.43;3.80;;;;;;;5.86;100.00;96321.38;5096931;28;20187;-59
2022/01/01 06:00:57;;;;;;;4.87;3.60;;;;;;;5.82;100.00;96323.22;5097075;28;20254;-59
2022/01/01 06:03:22;;;;;;;6.60;3.87;;;;;;;5.79;100.00;96321.19;5096874;28;20186;-61
2022/01/01 06:05:51;;;;;;;5.10;3.43;;;;;;;5.74;100.00;96326.06;5097178;28;20211;-59
2022/01/01 06:08:17;;;;;;;6.83;3.63;;;;;;;5.73;100.00;96329.91;5097089;28;20219;-63
2022/01/01 06:10:42;;;;;;;6.07;3.70;;;;;;;5.72;100.00;96333.78;5096646;28;20212;-60
2022/01/01 06:13:08;;;;;;;5.07;3.30;;;;;;;5.68;100.00;96332.91;5096636;28;20256;-60
2022/01/01 06:15:33;;;;;;;5.80;3.97;;;;;;;5.64;100.00;96332.00;5096634;28;20200;-60
2022/01/01 06:17:59;;;;;;;6.47;4.17;;;;;;;5.61;100.00;96338.13;5113478;28;20245;-60
2022/01/01 06:20:24;;;;;;;5.80;4.10;;;;;;;5.60;100.00;96336.53;5096402;28;20291;-60
2022/01/01 06:22:50;;;;;;;5.07;3.70;;;;;;;5.57;100.00;96332.59;5096696;28;20193;-60
2022/01/01 06:25:15;;;;;;;6.10;3.47;;;;;;;5.56;100.00;96335.66;5096737;28;20185;-63
2022/01/01 06:27:41;;;;;;;7.13;3.93;;;;;;;5.52;100.00;96334.78;5096716;28;20187;-61
2022/01/01 06:30:07;;;;;;;4.33;3.40;;;;;;;5.47;100.00;96326.91;5096823;28;20189;-74
2022/01/01 06:32:32;;;;;;;5.17;3.37;;;;;;;5.42;100.00;96329.88;5096095;28;20192;-74
2022/01/01 06:34:59;;;;;;;4.33;3.50;;;;;;;5.36;100.00;96334.75;5096493;28;20191;-73
2022/01/01 06:37:24;;;;;;;7.97;4.27;;;;;;;5.32;100.00;96336.56;5096112;28;20190;-76
2022/01/01 06:39:50;;;;;;;5.47;4.30;;;;;;;5.33;100.00;96321.13;5096271;28;20208;-74
2022/01/01 06:42:15;;;;;;;5.67;4.13;;;;;;;5.31;100.00;96324.19;5096710;28;20205;-73
2022/01/01 06:44:42;;;;;;;9.07;5.10;;;;;;;5.29;100.00;96331.06;5096297;28;20224;-63
2022/01/01 06:47:08;;;;;;;7.50;4.60;;;;;;;5.27;100.00;96330.63;5113042;28;20251;-62
2022/01/01 06:49:33;;;;;;;5.13;3.93;;;;;;;5.26;100.00;96326.34;5096304;28;20216;-62
2022/01/01 06:51:58;;;;;;;6.67;4.37;;;;;;;5.25;100.00;96335.63;5095708;28;20208;-63
2022/01/01 06:54:24;;;;;;;6.20;4.30;;;;;;;5.24;100.00;96332.09;5096078;28;20273;-64
2022/01/01 06:56:49;;;;;;;5.90;4.40;;;;;;;5.23;100.00;96332.44;5096352;28;20192;-64
2022/01/01 06:59:14;;;;;;;6.30;4.43;;;;;;;5.20;100.00;96327.72;5096286;28;20196;-64
2022/01/01 07:01:40;;;;;;;8.13;4.60;;;;;;;5.18;100.00;96330.00;5096016;28;20215;-61
2022/01/01 07:04:05;;;;;;;8.07;3.83;;;;;;;5.19;100.00;96326.97;5095751;28;20192;-58
2022/01/01 07:06:31;;;;;;;5.23;3.80;;;;;;;5.18;100.00;96319.19;5096001;28;20214;-60
2022/01/01 07:08:57;;;;;;;4.47;3.90;;;;;;;5.17;100.00;96323.78;5096493;28;20223;-58
2022/01/01 07:11:22;;;;;;;6.10;4.07;;;;;;;5.20;100.00;96316.88;5095987;28;20249;-58
2022/01/01 07:13:48;;;;;;;5.03;4.00;;;;;;;5.25;100.00;96316.66;5095902;28;20211;-58
2022/01/01 07:16:13;;;;;;;5.93;4.40;;;;;;;5.34;100.00;96309.16;5095953;28;20184;-58
2022/01/01 07:18:39;;;;;;;7.07;4.57;;;;;;;5.47;100.00;96319.56;5096325;28;20191;-58
2022/01/01 07:21:04;;;;;;;5.70;3.77;;;;;;;5.67;100.00;96326.69;5096360;28;20204;-60
2022/01/01 07:23:29;;;;;;;6.17;4.60;;;;;;;5.91;100.00;96331.94;5095949;28;20188;-71
2022/01/01 07:25:55;;;;;;;6.00;3.90;;;;;;;6.21;100.00;96329.59;5095613;28;20192;-72
2022/01/01 07:28:20;;;;;;;6.03;3.73;;;;;;;6.54;100.00;96328.03;5095851;28;20265;-72
2022/01/01 07:30:46;;;;;;;4.53;3.30;;;;;;;7.01;100.00;96336.03;5095610;28;20208;-69
2022/01/01 07:33:12;;;;;;;6.57;3.77;;;;;;;7.41;100.00;96333.72;5096274;28;20209;-72
2022/01/01 07:35:38;;;;;;;5.40;3.47;;;;;;;7.75;100.00;96327.34;5095831;28;20196;-70
2022/01/01 07:38:04;;;;;;;4.77;3.70;;;;;;;8.14;100.00;96336.97;5095682;28;20190;-70
2022/01/01 07:40:30;;;;;;;7.33;5.87;;;;;;;8.51;100.00;96337.97;5095466;28;20217;-59
2022/01/01 07:42:56;;;;;;;11.00;7.67;;;;;;;8.77;100.00;96340.69;5096086;28;20180;-65
2022/01/01 07:45:22;;;;;;;9.60;5.80;;;;;;;9.16;100.00;96336.53;5095785;28;20191;-65
2022/01/01 07:47:47;;;;;;;6.80;4.73;;;;;;;9.27;100.00;96340.19;5095880;28;20180;-64
2022/01/01 07:50:12;;;;;;;4.97;3.40;;;;;;;9.54;100.00;96341.66;5113672;28;20188;-63
2022/01/01 07:52:38;;;;;;;5.47;4.00;;;;;;;9.82;100.00;96341.16;5095420;28;20191;-64
2022/01/01 07:55:04;;;;;;;5.47;4.00;;;;;;;10.06;100.00;96335.97;5095520;28;20198;-64
2022/01/01 07:57:29;;;;;;;4.77;3.97;;;;;;;10.33;100.00;96341.25;5113659;28;20213;-63
2022/01/01 07:59:55;;;;;;;6.70;5.33;;;;;;;10.69;100.00;96349.34;5095476;28;20283;-77
2022/01/01 08:02:20;;;;;;;8.40;5.43;;;;;;;11.03;100.00;96339.78;5095544;28;20197;-62
2022/01/01 08:04:45;;;;;;;8.17;6.23;;;;;;;11.48;100.00;96339.19;5097260;28;20194;-60
2022/01/01 08:07:11;;;;;;;4.87;3.67;;;;;;;11.59;100.00;96344.72;5099523;28;20279;-60
2022/01/01 08:09:38;;;;;;;4.03;3.30;;;;;;;11.51;100.00;96341.16;5099099;28;20191;-60
2022/01/01 08:12:05;;;;;;;5.90;4.60;;;;;;;11.48;100.00;96341.16;5098731;28;20183;-60
2022/01/01 08:14:31;;;;;;;6.73;5.43;;;;;;;11.43;100.00;96341.53;5098446;28;20175;-60
2022/01/01 08:17:02;;;;;;;5.63;3.93;;;;;;;11.86;100.00;96337.78;5098980;28;20223;-64
2022/01/01 08:19:28;;;;;;;5.43;3.63;;;;;;;12.38;100.00;96337.06;5098424;28;20180;-72
2022/01/01 08:21:54;;;;;;;3.37;3.07;;;;;;;12.61;100.00;96340.97;5098924;28;20246;-71
2022/01/01 08:24:21;;;;;;;3.33;2.80;;;;;;;12.73;100.00;96343.31;5098160;28;20187;-70
2022/01/01 08:26:46;;;;;;;4.03;3.50;;;;;;;13.32;100.00;96347.13;5098615;28;20186;-72
2022/01/01 08:29:12;;;;;;;5.03;3.40;;;;;;;13.80;100.00;96339.84;5098801;28;20180;-71
2022/01/01 08:31:37;;;;;;;6.70;3.30;;;;;;;14.04;100.00;96338.16;5097936;28;20304;-70
2022/01/01 08:34:03;;;;;;;4.70;3.83;;;;;;;13.83;100.00;96349.25;5098832;28;20284;-63
2022/01/01 08:36:28;;;;;;;5.50;3.80;;;;;;;14.11;100.00;96355.38;5098228;28;20201;-59
2022/01/01 08:38:53;;;;;;;4.03;3.43;;;;;;;14.31;100.00;96361.94;5098538;28;20217;-63
2022/01/01 08:41:19;;;;;;;3.47;3.17;;;;;;;14.63;100.00;96365.22;5098195;28;20199;-62
2022/01/01 08:43:44;;;;;;;4.13;3.10;;;;;;;14.77;100.00;96365.13;5098216;28;20211;-62
2022/01/01 08:46:10;;;;;;;3.70;3.27;;;;;;;14.91;100.00;96369.72;5098066;28;20272;-62
2022/01/01 08:48:35;;;;;;;3.87;3.40;;;;;;;15.00;100.00;96368.03;5098062;28;20184;-62
2022/01/01 08:51:20;;;;;;;4.97;3.53;;;;;;;14.93;100.00;96370.84;5098472;28;20217;-62
2022/01/01 08:53:47;;;;;;;20.83;17.27;;;;;;;14.91;100.00;96376.00;5098523;28;20579;-59
2022/01/01 08:56:13;;;;;;;5.00;3.87;;;;;;;14.72;100.00;96379.28;5115049;28;20192;-63
2022/01/01 08:58:41;;;;;;;5.20;3.60;;;;;;;15.13;100.00;96382.06;5097887;28;20194;-63
2022/01/01 09:01:08;;;;;;;4.30;3.40;;;;;;;15.54;100.00;96380.88;5097669;28;20275;-62
2022/01/01 09:03:35;;;;;;;3.90;3.40;;;;;;;15.59;98.24;96382.41;5098274;28;20256;-61
2022/01/01 09:06:05;;;;;;;4.53;3.33;;;;;;;15.65;95.91;96378.78;5098290;28;20184;-62
2022/01/01 09:08:32;;;;;;;3.97;3.40;;;;;;;15.56;96.58;96374.97;5097751;28;20278;-63
2022/01/01 09:10:57;;;;;;;4.67;3.60;;;;;;;15.57;93.71;96371.00;5098032;28;20229;-73
2022/01/01 09:13:23;;;;;;;3.90;3.50;;;;;;;15.95;94.11;96367.78;5097852;28;20184;-61
2022/01/01 09:15:48;;;;;;;4.43;3.70;;;;;;;16.69;87.60;96363.16;5097450;28;20190;-69
2022/01/01 09:18:13;;;;;;;4.00;3.60;;;;;;;16.84;84.57;96372.78;5097652;28;20192;-70
2022/01/01 09:20:39;;;;;;;5.00;3.40;;;;;;;16.87;82.33;96372.72;5097546;28;20200;-68
2022/01/01 09:23:04;;;;;;;4.33;3.37;;;;;;;17.29;80.42;96376.72;5097628;28;20198;-67
2022/01/01 09:25:29;;;;;;;4.03;3.50;;;;;;;17.49;80.84;96367.31;5097890;28;20184;-67
2022/01/01 09:27:55;;;;;;;5.20;3.40;;;;;;;17.49;79.55;96370.06;5097096;28;20204;-69
2022/01/01 09:30:20;;;;;;;4.17;3.23;;;;;;;17.46;79.42;96372.88;5097524;28;20270;-68
2022/01/01 09:32:46;;;;;;;6.00;4.47;;;;;;;17.53;78.07;96375.50;5097346;28;20227;-66
2022/01/01 09:35:11;;;;;;;3.47;3.17;;;;;;;17.71;78.78;96375.94;5097196;28;20183;-69
2022/01/01 09:37:37;;;;;;;3.93;3.30;;;;;;;17.91;76.33;96376.69;5097134;28;20197;-68
2022/01/01 09:40:03;;;;;;;4.37;3.83;;;;;;;18.06;74.80;96375.97;5092959;28;20192;-68
2022/01/01 09:42:30;;;;;;;4.13;3.73;;;;;;;18.07;74.75;96376.78;5076397;28;20213;-67
2022/01/01 09:44:57;;;;;;;4.33;3.57;;;;;;;18.30;74.16;96390.47;5093246;28;20235;-67
2022/01/01 09:47:23;;;;;;;3.30;3.00;;;;;;;18.43;72.39;96394.94;5076156;28;20212;-59
2022/01/01 09:49:48;;;;;;;3.97;3.57;;;;;;;18.03;73.73;96393.41;5076531;28;20235;-63
2022/01/01 09:52:15;;;;;;;4.13;3.73;;;;;;;17.97;74.02;96391.59;5092863;28;20193;-70
2022/01/01 09:54:41;;;;;;;4.10;3.70;;;;;;;18.29;74.19;96383.41;5092804;28;20196;-67
2022/01/01 09:57:07;;;;;;;4.30;3.10;;;;;;;18.54;73.73;96389.19;5075905;28;20237;-65
2022/01/01 09:59:33;;;;;;;3.47;3.13;;;;;;;18.27;72.04;96386.59;5076402;28;20201;-69
2022/01/01 10:01:58;;;;;;;5.17;3.63;;;;;;;18.29;71.99;96388.94;5092423;28;20307;-66
2022/01/01 10:04:24;;;;;;;3.70;3.30;;;;;;;17.98;72.63;96390.38;5092631;28;20288;-66
2022/01/01 10:07:03;;;;;;;5.07;3.63;;;;;;;17.65;75.72;96388.69;5092540;28;20203;-62
2022/01/01 10:09:36;;;;;;;4.20;3.80;;;;;;;17.95;74.03;96394.03;5092738;28;20199;-66
2022/01/01 10:12:06;;;;;;;5.57;3.27;;;;;;;17.67;74.94;96397.34;5113114;28;20199;-63
2022/01/01 10:14:40;;;;;;;11.40;8.30;;;;;;;17.80;75.78;96401.00;5097080;28;20186;-64
2022/01/01 10:17:22;;;;;;;10.50;7.17;;;;;;;17.59;76.27;96387.63;5096480;28;20194;-64
2022/01/01 10:19:51;;;;;;;5.93;4.40;;;;;;;18.07;74.58;96379.53;5097113;28;20182;-64
2022/01/01 10:22:22;;;;;;;3.67;3.23;;;;;;;18.31;74.31;96375.44;5096774;28;20215;-65
2022/01/01 10:27:42;;;;;;;4.03;3.63;;;;;;;18.11;75.38;96378.25;5114665;28;20202;-62
2022/01/01 10:30:09;;;;;;;5.80;5.03;;;;;;;18.17;75.55;96376.53;5096914;28;20256;-64
2022/01/01 10:32:35;;;;;;;5.27;4.13;;;;;;;17.87;76.45;96379.56;5096471;28;20211;-63
2022/01/01 10:35:01;;;;;;;7.60;4.47;;;;;;;17.98;75.34;96382.09;5096340;28;20184;-65
2022/01/01 10:37:28;;;;;;;4.27;3.80;;;;;;;18.35;74.56;96387.22;5096725;28;20188;-64
2022/01/01 10:39:54;;;;;;;5.00;3.87;;;;;;;18.31;73.79;96378.19;5096412;28;20357;-65
2022/01/01 10:42:20;;;;;;;3.97;3.40;;;;;;;17.47;77.02;96377.19;5096389;28;20207;-63
2022/01/01 10:44:48;;;;;;;6.67;4.43;;;;;;;16.76;83.25;96376.84;5113370;28;20190;-64
2022/01/01 10:47:33;;;;;;;5.27;3.13;;;;;;;16.24;87.87;96370.91;5096892;28;20184;-58
2022/01/01 10:50:13;;;;;;;3.40;3.10;;;;;;;15.88;90.16;96372.59;5096664;28;20187;-58
2022/01/01 10:52:45;;;;;;;8.90;7.00;;;;;;;15.43;94.85;96369.19;5096687;28;20217;-58
2022/01/01 10:55:11;;;;;;;5.97;4.00;;;;;;;15.08;99.58;96369.53;5096653;28;20203;-58
2022/01/01 10:57:38;;;;;;;3.50;3.17;;;;;;;14.77;100.00;96365.13;5096042;28;20260;-58
2022/01/01 11:00:09;;;;;;;7.27;3.90;;;;;;;14.51;100.00;96362.97;5096065;28;20188;-58
2022/01/01 11:02:35;;;;;;;3.90;2.87;;;;;;;14.27;100.00;96360.41;5096044;28;20215;-66
2022/01/01 11:05:03;;;;;;;6.90;5.17;;;;;;;14.11;100.00;96351.84;5096068;28;20188;-59
2022/01/01 11:07:30;;;;;;;6.13;5.33;;;;;;;13.95;100.00;96346.06;5096074;28;20187;-60
2022/01/01 11:09:56;;;;;;;6.63;4.37;;;;;;;13.86;100.00;96332.78;5095896;28;20194;-59
2022/01/01 11:12:27;;;;;;;4.47;3.30;;;;;;;13.77;100.00;96332.41;5096008;28;20180;-59
2022/01/01 11:14:53;;;;;;;3.57;2.80;;;;;;;13.62;100.00;96338.41;5096368;28;20185;-59
2022/01/01 11:17:20;;;;;;;4.03;3.00;;;;;;;13.53;100.00;96341.56;5096022;28;20187;-59
2022/01/01 11:19:46;;;;;;;4.93;3.47;;;;;;;13.46;100.00;96341.59;5113223;28;20188;-58
2022/01/01 11:22:12;;;;;;;3.83;3.13;;;;;;;13.32;100.00;96336.94;5096248;28;20204;-72
2022/01/01 11:24:41;;;;;;;5.27;3.60;;;;;;;13.23;100.00;96338.53;5095658;28;20180;-61
2022/01/01 11:27:07;;;;;;;3.47;2.73;;;;;;;13.21;100.00;96340.88;5095747;28;20184;-61
2022/01/01 11:29:36;;;;;;;5.50;3.13;;;;;;;13.12;100.00;96335.81;5096382;28;20210;-61
2022/01/01 11:32:04;;;;;;;7.63;5.23;;;;;;;13.13;100.00;96333.88;5096239;28;20184;-61
2022/01/01 11:34:31;;;;;;;5.30;4.17;;;;;;;12.98;100.00;96332.34;5096108;28;20233;-62